Time;durP1;ratioP1;P1;durP2;ratioP2;P2;SDS_P1;SDS_P2;PMS_P1;PMS_P2;Temp;Humidity;BMP_temperature;BMP_pressure;BME280_temperature;BME280_humidity;BME280_pressure;Samples;Min_cycle;Max_cycle;Signal;HPM_P1;HPM_P2
2021/12/21 00:00:58;;;;;;;;;11.50;8.00;;;;;20.31;38.38;102055.91;5017576;28;51402;-58
2021/12/21 00:03:24;;;;;;;;;7.25;7.25;;;;;20.30;38.13;102054.19;5016394;28;52395;-55
2021/12/21 00:05:50;;;;;;;;;7.25;6.50;;;;;20.29;38.20;102058.00;5016192;28;51156;-54
2021/12/21 00:08:17;;;;;;;;;6.75;6.00;;;;;20.27;38.56;102054.59;5016728;28;52467;-57
2021/12/21 00:10:45;;;;;;;;;8.50;8.50;;;;;20.26;38.30;102051.00;5002299;28;51290;-57
2021/12/21 00:13:38;;;;;;;;;10.00;9.00;;;;;20.25;38.41;102046.53;5017240;28;51865;-57
2021/12/21 00:16:16;;;;;;;;;6.75;6.25;;;;;20.25;38.44;102037.44;5017514;28;51014;-56
2021/12/21 00:19:04;;;;;;;;;7.00;7.00;;;;;20.24;38.31;102031.06;5017603;28;51188;-57
2021/12/21 00:21:36;;;;;;;;;7.00;4.00;;;;;20.23;38.37;102037.63;5007089;28;50939;-57
2021/12/21 00:24:10;;;;;;;;;8.50;8.00;;;;;20.21;38.41;102034.19;4999324;28;51267;-59
2021/12/21 00:26:37;;;;;;;;;7.75;7.00;;;;;20.21;38.34;102031.44;5007020;28;51068;-58
2021/12/21 00:29:03;;;;;;;;;7.50;7.00;;;;;20.19;38.19;102030.78;4998574;28;51163;-58
2021/12/21 00:31:34;;;;;;;;;8.25;5.75;;;;;20.18;38.52;102040.06;4998474;28;51175;-57
2021/12/21 00:34:00;;;;;;;;;6.75;6.00;;;;;20.17;38.22;102041.13;5004401;28;53064;-60
2021/12/21 00:36:28;;;;;;;;;7.00;5.75;;;;;20.17;38.24;102030.13;5022591;28;51249;-56
2021/12/21 00:38:57;;;;;;;;;8.75;8.75;;;;;20.15;38.30;102029.47;5017554;28;51223;-56
2021/12/21 00:41:24;;;;;;;;;10.25;6.25;;;;;20.14;38.63;102022.25;5015948;28;51251;-57
2021/12/21 00:43:51;;;;;;;;;5.25;4.25;;;;;20.13;38.29;102029.66;5010909;28;51302;-57
2021/12/21 00:46:17;;;;;;;;;4.25;4.25;;;;;20.12;38.66;102036.22;5016948;28;51154;-56
2021/12/21 00:48:50;;;;;;;;;6.25;6.25;;;;;20.10;38.76;102027.28;5017279;28;51077;-55
2021/12/21 00:51:17;;;;;;;;;8.00;6.50;;;;;20.10;38.20;102026.41;5008682;28;52071;-56
2021/12/21 00:53:43;;;;;;;;;7.50;4.75;;;;;20.07;38.13;102016.66;4997820;28;51976;-57
2021/12/21 00:56:09;;;;;;;;;6.25;6.25;;;;;20.09;38.21;102022.81;4997792;28;51146;-57
2021/12/21 00:58:34;;;;;;;;;6.25;6.25;;;;;20.07;38.53;102024.91;4997865;28;51338;-57
2021/12/21 01:01:05;;;;;;;;;8.00;8.00;;;;;20.08;38.20;102023.00;5002447;28;51200;-57
2021/12/21 01:03:32;;;;;;;;;6.00;6.00;;;;;20.06;38.36;102019.59;5015377;28;51762;-56
2021/12/21 01:09:09;;;;;;;;;7.25;6.75;;;;;20.05;38.21;102017.91;5012534;28;51515;-57
2021/12/21 01:11:49;;;;;;;;;6.50;6.00;;;;;20.02;38.60;102008.16;5015718;28;51111;-57
2021/12/21 01:17:25;;;;;;;;;5.75;5.75;;;;;20.01;38.37;102009.19;5016985;28;51065;-57
2021/12/21 01:19:59;;;;;;;;;4.00;4.00;;;;;20.01;38.61;102008.31;5016441;28;51580;-59
2021/12/21 01:27:31;;;;;;;;;4.75;4.75;;;;;19.98;38.39;102008.69;5008527;28;51164;-56
2021/12/21 01:35:19;;;;;;;;;4.75;4.75;;;;;19.95;38.36;101996.19;5007946;28;52219;-58
2021/12/21 01:37:55;;;;;;;;;5.00;3.75;;;;;19.93;38.21;102006.53;5024693;28;51226;-57
2021/12/21 01:40:50;;;;;;;;;5.25;4.00;;;;;19.93;38.37;102006.53;5012926;28;51229;-58
2021/12/21 01:43:15;;;;;;;;;6.00;6.00;;;;;19.93;38.08;102011.19;5002934;28;51523;-57
2021/12/21 01:51:10;;;;;;;;;4.25;4.25;;;;;19.91;38.37;102005.03;5009138;28;51190;-57
2021/12/21 01:53:36;;;;;;;;;4.00;3.75;;;;;19.89;38.22;101997.78;5006603;28;51356;-57
2021/12/21 01:56:03;;;;;;;;;4.25;4.25;;;;;19.89;38.75;101999.69;5003947;28;51092;-56
2021/12/21 01:58:28;;;;;;;;;5.00;5.00;;;;;19.89;38.38;102005.19;5005310;28;51339;-57
2021/12/21 02:00:54;;;;;;;;;6.00;4.75;;;;;19.88;38.64;102006.25;5001993;28;51291;-53
2021/12/21 02:03:19;;;;;;;;;7.75;6.00;;;;;19.86;38.50;102008.34;5001380;28;51314;-56
2021/12/21 02:05:45;;;;;;;;;5.75;5.00;;;;;19.87;38.49;102001.78;5007301;28;52720;-58
2021/12/21 02:08:10;;;;;;;;;7.00;5.75;;;;;19.86;38.85;102002.84;5000378;28;51194;-56
2021/12/21 02:10:36;;;;;;;;;6.50;5.00;;;;;19.86;38.67;101995.44;5007646;28;51145;-57
2021/12/21 02:13:02;;;;;;;;;5.25;5.25;;;;;19.85;38.61;102001.97;5011098;28;51157;-56
2021/12/21 02:15:28;;;;;;;;;4.50;4.50;;;;;19.85;38.58;101995.63;5014779;28;51910;-56
2021/12/21 02:23:12;;;;;;;;;6.25;5.25;;;;;19.83;38.25;101994.97;5017438;28;52525;-52
2021/12/21 02:25:57;;;;;;;;;4.50;4.50;;;;;19.81;38.65;101991.56;5013819;28;52261;-56
2021/12/21 02:28:44;;;;;;;;;6.50;4.75;;;;;19.80;38.71;101981.59;5001142;28;51321;-56
2021/12/21 02:31:08;;;;;;;;;3.25;3.25;;;;;19.78;38.59;101978.19;5001734;28;50939;-56
2021/12/21 02:33:35;;;;;;;;;4.00;4.00;;;;;19.77;38.45;101982.81;5002227;28;51171;-56
2021/12/21 02:36:01;;;;;;;;;5.75;5.50;;;;;19.76;38.54;101980.28;5012050;28;51082;-56
2021/12/21 02:38:27;;;;;;;;;7.75;4.75;;;;;19.76;38.44;101980.28;5000825;28;51097;-53
2021/12/21 02:40:54;;;;;;;;;4.50;4.50;;;;;19.74;38.42;101971.38;4997275;28;51111;-55
2021/12/21 02:43:19;;;;;;;;;3.75;3.75;;;;;19.73;38.43;101967.75;4999371;28;51258;-56
2021/12/21 02:45:45;;;;;;;;;7.50;5.00;;;;;19.73;38.39;101969.66;5014611;28;51770;-53
2021/12/21 02:48:10;;;;;;;;;5.75;4.75;;;;;19.71;38.01;101963.50;5013561;28;51153;-56
2021/12/21 02:50:38;;;;;;;;;5.25;4.00;;;;;19.70;38.24;101959.91;5015795;28;50993;-56
2021/12/21 02:53:04;;;;;;;;;7.00;5.75;;;;;19.71;38.44;101961.63;5020402;28;51245;-56
2021/12/21 02:55:29;;;;;;;;;4.00;4.00;;;;;19.69;38.16;101963.66;5018585;28;51789;-55
2021/12/21 02:57:57;;;;;;;;;7.00;5.00;;;;;19.68;38.21;101956.47;4997958;28;51228;-57
2021/12/21 03:00:23;;;;;;;;;4.25;4.00;;;;;19.67;37.89;101954.75;5012064;28;51124;-54
2021/12/21 03:02:48;;;;;;;;;5.25;4.25;;;;;19.68;38.22;101947.38;5005999;28;51070;-53
2021/12/21 03:05:14;;;;;;;;;5.00;5.00;;;;;19.66;38.19;101946.72;5014937;28;51711;-52
2021/12/21 03:10:16;;;;;;;;;4.50;4.50;;;;;19.63;38.06;101945.22;5004145;28;51331;-56
2021/12/21 03:15:30;;;;;;;;;6.75;5.50;;;;;19.61;38.29;101947.31;5013515;28;51127;-56
2021/12/21 03:17:56;;;;;;;;;4.00;4.00;;;;;19.62;38.42;101950.91;5018866;28;51640;-56
2021/12/21 03:20:23;;;;;;;;;4.50;4.00;;;;;19.59;38.46;101950.25;5015281;28;51104;-56
2021/12/21 03:22:49;;;;;;;;;5.00;5.00;;;;;19.59;37.94;101950.25;5014317;28;51086;-56
2021/12/21 03:25:14;;;;;;;;;7.25;5.00;;;;;19.58;37.94;101945.75;5017118;28;52143;-55
2021/12/21 03:27:40;;;;;;;;;4.25;4.00;;;;;19.57;37.92;101946.81;5002631;28;51205;-55
2021/12/21 03:30:08;;;;;;;;;4.75;4.75;;;;;19.57;37.96;101957.81;5007911;28;51201;-57
2021/12/21 03:32:34;;;;;;;;;6.00;5.00;;;;;19.56;38.22;101952.50;5023876;28;50960;-56
2021/12/21 03:35:00;;;;;;;;;4.25;4.25;;;;;19.54;38.15;101949.06;5011521;28;51083;-55
2021/12/21 03:37:25;;;;;;;;;3.75;3.00;;;;;19.53;38.41;101948.22;5001525;28;51056;-53
2021/12/21 03:39:53;;;;;;;;;5.00;4.75;;;;;19.52;37.76;101942.91;5005270;28;51097;-56
2021/12/21 03:42:20;;;;;;;;;5.25;4.75;;;;;19.52;38.13;101948.41;4995871;28;51138;-55
2021/12/21 03:44:47;;;;;;;;;5.25;5.00;;;;;19.51;38.11;101936.56;4995097;28;51956;-56
2021/12/21 03:47:15;;;;;;;;;5.25;5.25;;;;;19.50;38.05;101948.59;5002865;28;51314;-51
2021/12/21 03:52:08;;;;;;;;;5.00;5.00;;;;;19.48;38.23;101953.41;5019772;28;51228;-54
2021/12/21 03:54:34;;;;;;;;;7.50;4.50;;;;;19.47;38.22;101948.94;5019639;28;51148;-55
2021/12/21 03:57:01;;;;;;;;;4.25;3.50;;;;;19.48;37.90;101944.31;5016876;28;51059;-53
2021/12/21 03:59:26;;;;;;;;;5.50;5.00;;;;;19.45;38.16;101940.06;5011843;28;51164;-56
2021/12/21 04:01:52;;;;;;;;;5.00;3.75;;;;;19.46;38.18;101954.63;5015993;28;51027;-54
2021/12/21 04:04:18;;;;;;;;;4.00;3.50;;;;;19.45;37.99;101948.28;4997841;28;51761;-56
2021/12/21 04:06:44;;;;;;;;;4.00;4.00;;;;;19.45;38.08;101950.19;5006551;28;51056;-59
2021/12/21 04:09:09;;;;;;;;;4.00;4.00;;;;;19.43;37.70;101953.13;5011240;28;50977;-55
2021/12/21 04:11:35;;;;;;;;;8.75;4.75;;;;;19.44;38.11;101948.50;5003609;28;51303;-54
2021/12/21 04:14:01;;;;;;;;;4.25;4.00;;;;;19.42;37.89;101943.19;4995099;28;51885;-55
2021/12/21 04:16:27;;;;;;;;;5.50;5.00;;;;;19.42;38.06;101936.84;5019790;28;51049;-55
2021/12/21 04:18:53;;;;;;;;;6.00;5.75;;;;;19.41;38.06;101937.88;5015083;28;51583;-55
2021/12/21 04:21:18;;;;;;;;;3.75;3.75;;;;;19.40;38.11;101937.03;4995384;28;51119;-56
2021/12/21 04:23:44;;;;;;;;;5.75;5.00;;;;;19.40;37.83;101936.19;4995875;28;52051;-56
2021/12/21 04:26:11;;;;;;;;;5.25;4.50;;;;;19.39;37.78;101937.22;5005818;28;51077;-55
2021/12/21 04:28:38;;;;;;;;;4.00;4.00;;;;;19.38;37.76;101936.34;5023454;28;51182;-57
2021/12/21 04:31:04;;;;;;;;;4.50;4.00;;;;;19.37;37.99;101923.66;5016162;28;51132;-56
2021/12/21 04:33:30;;;;;;;;;8.75;5.25;;;;;19.38;37.91;101932.75;5001943;28;52039;-56
2021/12/21 04:35:56;;;;;;;;;4.50;4.50;;;;;19.36;38.00;101926.59;5002261;28;51072;-54
2021/12/21 04:38:24;;;;;;;;;6.00;4.50;;;;;19.35;38.22;101933.97;5000002;28;51176;-54
2021/12/21 04:40:57;;;;;;;;;4.75;4.75;;;;;19.35;38.00;101933.97;4998484;28;51095;-56
2021/12/21 04:43:22;;;;;;;;;4.25;4.00;;;;;19.35;37.79;101933.13;5007195;28;51949;-56
2021/12/21 04:45:49;;;;;;;;;7.00;5.25;;;;;19.34;37.94;101935.03;5014948;28;51071;-53
2021/12/21 04:48:14;;;;;;;;;3.50;3.50;;;;;19.31;38.11;101936.25;5003300;28;51201;-56
2021/12/21 04:50:41;;;;;;;;;5.00;5.00;;;;;19.32;38.02;101931.63;5006209;28;51094;-54
2021/12/21 04:53:07;;;;;;;;;8.25;4.25;;;;;19.30;37.96;101930.97;5012230;28;51002;-56
2021/12/21 04:55:33;;;;;;;;;6.50;6.00;;;;;19.30;37.85;101925.47;4997923;28;51126;-54
2021/12/21 04:57:59;;;;;;;;;3.00;3.00;;;;;19.29;37.86;101927.38;4997904;28;51257;-56
2021/12/21 05:00:25;;;;;;;;;4.00;4.00;;;;;19.28;37.93;101928.41;5008476;28;51089;-56
2021/12/21 05:02:50;;;;;;;;;6.75;4.75;;;;;19.28;38.26;101922.06;5007025;28;51808;-55
2021/12/21 05:05:16;;;;;;;;;5.00;5.00;;;;;19.27;38.02;101921.19;5011716;28;51064;-56
2021/12/21 05:07:46;;;;;;;;;5.00;5.00;;;;;19.27;37.80;101928.56;4999490;28;51140;-56
2021/12/21 05:10:12;;;;;;;;;5.50;5.50;;;;;19.27;38.05;101934.06;4998260;28;51320;-56
2021/12/21 05:12:38;;;;;;;;;6.00;4.75;;;;;19.26;37.81;101930.47;4997437;28;52724;-54
2021/12/21 05:15:04;;;;;;;;;5.50;4.50;;;;;19.25;38.04;101933.41;5009131;28;51214;-51
2021/12/21 05:17:30;;;;;;;;;4.25;4.25;;;;;19.24;37.74;101926.22;4997626;28;50937;-55
2021/12/21 05:19:55;;;;;;;;;5.50;5.50;;;;;19.23;38.15;101935.50;5008474;28;51368;-56
2021/12/21 05:22:21;;;;;;;;;8.25;6.75;;;;;19.22;38.17;101934.63;5016594;28;51236;-52
2021/12/21 05:24:47;;;;;;;;;5.00;5.00;;;;;19.22;37.84;101934.63;5006914;28;51192;-56
2021/12/21 05:27:13;;;;;;;;;4.00;4.00;;;;;19.22;38.25;101933.78;5014736;28;50993;-54
2021/12/21 05:29:38;;;;;;;;;5.00;4.00;;;;;19.21;37.77;101937.59;5016605;28;52052;-56
2021/12/21 05:32:04;;;;;;;;;4.75;4.75;;;;;19.21;38.12;101929.34;5020012;28;53004;-56
2021/12/21 05:34:30;;;;;;;;;7.25;4.75;;;;;19.20;37.86;101941.38;5017309;28;51148;-55
2021/12/21 05:36:56;;;;;;;;;5.50;4.00;;;;;19.19;37.92;101936.91;5019388;28;51049;-55
2021/12/21 05:39:25;;;;;;;;;6.00;5.25;;;;;19.17;37.84;101937.09;5009417;28;51223;-56
2021/12/21 05:41:54;;;;;;;;;7.00;6.00;;;;;19.17;37.96;101936.22;5011222;28;51251;-55
2021/12/21 05:44:22;;;;;;;;;5.25;5.00;;;;;19.16;38.12;101934.53;5008497;28;51546;-52
2021/12/21 05:46:49;;;;;;;;;3.25;3.25;;;;;19.16;38.03;101937.28;5028238;28;51536;-56
2021/12/21 05:49:15;;;;;;;;;3.75;2.75;;;;;19.15;37.88;101932.81;4999471;28;51039;-56
2021/12/21 05:51:40;;;;;;;;;6.50;4.25;;;;;19.15;37.88;101939.16;5014745;28;51066;-52
2021/12/21 05:54:06;;;;;;;;;4.00;4.00;;;;;19.14;37.83;101936.63;5014380;28;51099;-54
2021/12/21 05:56:31;;;;;;;;;3.00;2.75;;;;;19.14;38.21;101937.47;5005908;28;51226;-56
2021/12/21 05:58:57;;;;;;;;;6.25;5.50;;;;;19.15;38.30;101932.81;5006576;28;51039;-56
2021/12/21 06:01:23;;;;;;;;;3.00;3.00;;;;;19.14;38.13;101933.88;5015096;28;51583;-56
2021/12/21 06:03:48;;;;;;;;;3.25;3.25;;;;;19.14;38.13;101936.63;5009767;28;51529;-56
2021/12/21 06:06:15;;;;;;;;;4.50;4.50;;;;;19.13;38.26;101943.16;4997099;28;51034;-54
2021/12/21 06:08:44;;;;;;;;;4.75;4.75;;;;;19.13;38.27;101934.91;5008156;28;51239;-54
2021/12/21 06:11:09;;;;;;;;;6.00;5.25;;;;;19.12;38.15;101934.06;5015052;28;51925;-55
2021/12/21 06:27:33;;;;;;;;;7.50;7.50;;;;;18.97;34.84;101958.75;5014140;28;51247;-56
2021/12/21 06:29:59;;;;;;;;;8.75;8.75;;;;;18.90;34.27;101957.78;5012057;28;51337;-56
2021/12/21 06:32:24;;;;;;;;;10.50;8.50;;;;;18.83;33.87;101953.19;5012679;28;51753;-55
2021/12/21 06:34:50;;;;;;;;;9.75;7.75;;;;;18.76;33.39;101961.34;5002038;28;51225;-54
2021/12/21 06:37:15;;;;;;;;;8.25;7.75;;;;;18.69;33.57;101943.91;5010719;28;51816;-56
2021/12/21 06:39:41;;;;;;;;;9.25;7.25;;;;;18.66;33.33;101949.75;5006726;28;51805;-55
2021/12/21 06:42:07;;;;;;;;;7.00;5.75;;;;;18.66;33.64;101939.63;5018229;28;51766;-59
2021/12/21 06:44:34;;;;;;;;;8.00;5.50;;;;;18.73;34.14;101939.72;5010444;28;51407;-55
2021/12/21 06:47:09;;;;;;;;;7.00;6.00;;;;;18.77;34.44;101937.50;5005917;28;51197;-64
2021/12/21 06:52:19;;;;;;;;;6.25;4.75;;;;;18.88;35.30;101937.06;5012957;28;50993;-56
2021/12/21 06:54:45;;;;;;;;;4.00;4.00;;;;;18.94;35.28;101939.03;4996435;28;50942;-56
2021/12/21 06:57:10;;;;;;;;;7.25;4.25;;;;;19.00;35.49;101941.03;4996656;28;51163;-57
2021/12/21 06:59:36;;;;;;;;;5.00;4.00;;;;;19.07;35.71;101944.75;5001936;28;51034;-58
2021/12/21 07:02:02;;;;;;;;;1.75;1.00;;;;;19.12;35.95;101934.06;5006827;28;52870;-56
2021/12/21 07:04:28;;;;;;;;;5.00;4.00;;;;;19.20;36.18;101933.13;5010818;28;50939;-57
2021/12/21 07:06:54;;;;;;;;;5.00;3.50;;;;;19.26;36.31;101932.34;4997516;28;51212;-58
2021/12/21 07:20:00;;;;;;;;;5.00;4.00;;;;;19.61;37.14;101941.81;5011731;28;51684;-55
2021/12/21 07:22:25;;;;;;;;;4.75;2.00;;;;;19.67;37.49;101943.78;5018897;28;51843;-57
2021/12/21 07:24:50;;;;;;;;;4.50;3.00;;;;;19.72;37.52;101944.06;5012209;28;51147;-59
2021/12/21 07:27:16;;;;;;;;;3.75;2.75;;;;;19.79;37.28;101941.38;5014874;28;51200;-57
2021/12/21 07:29:41;;;;;;;;;3.75;3.75;;;;;19.85;37.60;101949.72;5004914;28;51137;-58
2021/12/21 07:32:07;;;;;;;;;2.75;2.75;;;;;19.89;37.46;101948.28;5001698;28;51786;-58
2021/12/21 07:34:32;;;;;;;;;4.00;4.00;;;;;19.93;37.52;101954.28;4995184;28;51115;-57
2021/12/21 07:36:57;;;;;;;;;5.25;4.50;;;;;19.94;37.58;101958.75;5004505;28;51057;-57
2021/12/21 07:39:23;;;;;;;;;3.25;3.00;;;;;19.96;37.70;101966.78;5009867;28;51163;-58
2021/12/21 07:41:48;;;;;;;;;3.25;3.00;;;;;19.96;37.48;101959.38;4999692;28;51144;-57
2021/12/21 07:44:13;;;;;;;;;3.00;2.75;;;;;19.97;37.47;101958.34;5012979;28;52266;-58
2021/12/21 07:46:40;;;;;;;;;7.00;4.00;;;;;20.01;37.02;101945.94;5000448;28;51228;-59
2021/12/21 07:49:07;;;;;;;;;6.50;5.00;;;;;20.05;36.77;101941.75;4997087;28;51246;-55
2021/12/21 07:51:32;;;;;;;;;3.00;3.00;;;;;20.10;36.61;101947.50;5010380;28;53235;-55
2021/12/21 07:53:58;;;;;;;;;6.00;5.00;;;;;20.14;36.75;101953.50;5011681;28;50950;-55
2021/12/21 07:56:23;;;;;;;;;3.25;3.25;;;;;20.15;36.63;101952.44;5022456;28;51599;-56
2021/12/21 07:58:49;;;;;;;;;5.00;5.00;;;;;20.17;36.89;101955.84;5005567;28;51276;-55
2021/12/21 08:01:14;;;;;;;;;3.50;3.50;;;;;20.16;37.09;101952.25;4998708;28;51221;-58
2021/12/21 08:03:40;;;;;;;;;4.00;4.00;;;;;20.18;36.92;101954.78;5012071;28;51245;-57
2021/12/21 08:06:07;;;;;;;;;6.50;4.00;;;;;20.19;36.97;101957.34;5020198;28;51242;-57
2021/12/21 08:08:37;;;;;;;;;6.00;6.00;;;;;20.21;37.11;101959.91;5010973;28;51937;-57
2021/12/21 08:13:43;;;;;;;;;8.25;5.25;;;;;20.26;37.60;101964.84;5002716;28;51463;-56
2021/12/21 08:16:10;;;;;;;;;4.25;3.75;;;;;20.29;37.63;101967.19;5004153;28;51340;-58
2021/12/21 08:18:35;;;;;;;;;8.00;7.00;;;;;20.29;37.22;101970.78;5001380;28;51646;-57
2021/12/21 08:21:01;;;;;;;;;5.25;4.00;;;;;20.32;37.34;101972.28;5016745;28;52768;-57
2021/12/21 08:23:27;;;;;;;;;4.25;4.00;;;;;20.33;37.40;101966.63;5014149;28;51152;-56
2021/12/21 08:25:54;;;;;;;;;5.50;5.50;;;;;20.36;37.08;101962.63;5017149;28;51378;-56
2021/12/21 08:28:20;;;;;;;;;8.25;4.00;;;;;20.38;36.88;101964.13;5004469;28;51082;-56
2021/12/21 08:30:45;;;;;;;;;7.00;4.00;;;;;20.39;37.05;101970.47;5004542;28;51778;-57
2021/12/21 08:33:11;;;;;;;;;4.50;4.00;;;;;20.42;37.13;101967.34;5012320;28;51197;-56
2021/12/21 08:35:37;;;;;;;;;4.00;4.00;;;;;20.45;37.28;101972.50;5011157;28;51109;-57
2021/12/21 08:38:05;;;;;;;;;1.00;0.00;;;;;20.46;37.70;101961.28;5014760;28;51129;-57
2021/12/21 08:40:38;;;;;;;;;6.25;4.50;;;;;20.48;37.51;101966.59;4996791;28;52692;-57
2021/12/21 08:43:06;;;;;;;;;4.75;3.25;;;;;20.49;37.02;101964.69;5011765;28;51282;-56
2021/12/21 08:45:33;;;;;;;;;7.50;4.25;;;;;20.49;36.99;101965.53;5006410;28;50996;-56
2021/12/21 08:47:59;;;;;;;;;5.50;3.25;;;;;20.51;37.22;101971.69;4998067;28;51149;-56
2021/12/21 08:50:25;;;;;;;;;3.25;3.25;;;;;20.53;37.13;101971.50;4998259;28;52002;-57
2021/12/21 08:52:51;;;;;;;;;4.00;4.00;;;;;20.54;37.30;101963.06;5005824;28;51025;-57
2021/12/21 08:55:18;;;;;;;;;2.25;2.25;;;;;20.55;37.09;101966.69;5014959;28;51099;-57
2021/12/21 08:57:43;;;;;;;;;5.25;5.00;;;;;20.55;37.05;101958.41;5008024;28;51336;-56
2021/12/21 09:00:09;;;;;;;;;3.00;3.00;;;;;20.55;36.95;101963.94;5000863;28;51211;-56
2021/12/21 09:02:37;;;;;;;;;2.75;2.75;;;;;20.54;37.14;101963.06;4998699;28;51275;-57
2021/12/21 09:05:11;;;;;;;;;6.75;4.00;;;;;20.55;37.16;101970.28;5005936;28;51170;-56
2021/12/21 09:07:41;;;;;;;;;4.00;4.00;;;;;20.56;37.19;101969.22;5001280;28;51723;-56
2021/12/21 09:10:08;;;;;;;;;3.75;3.75;;;;;20.58;36.86;101964.38;5016457;28;51017;-56
2021/12/21 09:12:34;;;;;;;;;5.00;5.00;;;;;20.58;37.28;101969.03;4996055;28;51440;-56
2021/12/21 09:14:59;;;;;;;;;2.75;2.50;;;;;20.59;37.67;101970.72;4996363;28;50960;-58
2021/12/21 09:17:25;;;;;;;;;5.00;3.75;;;;;20.60;37.28;101978.78;4998843;28;50893;-56
2021/12/21 09:19:51;;;;;;;;;2.75;2.75;;;;;20.59;37.17;101982.59;4996778;28;52052;-55
2021/12/21 09:22:16;;;;;;;;;4.75;4.00;;;;;20.60;37.13;101987.06;5007367;28;51121;-57
2021/12/21 09:24:42;;;;;;;;;6.25;4.00;;;;;20.61;37.57;101985.16;5013244;28;51082;-56
2021/12/21 09:27:07;;;;;;;;;2.00;2.00;;;;;20.60;36.97;101983.44;5003832;28;51080;-57
2021/12/21 09:29:33;;;;;;;;;4.00;4.00;;;;;20.61;37.07;101980.50;4995874;28;52122;-59
2021/12/21 09:31:58;;;;;;;;;4.75;4.75;;;;;20.62;37.33;101981.34;4998538;28;50903;-57
2021/12/21 09:34:23;;;;;;;;;5.00;4.50;;;;;20.63;37.16;101978.38;5007254;28;51675;-57
2021/12/21 09:36:49;;;;;;;;;4.75;4.50;;;;;20.63;36.76;101977.53;5015931;28;51295;-57
2021/12/21 09:39:14;;;;;;;;;4.75;4.00;;;;;20.64;37.46;101985.63;5026152;28;51691;-58
2021/12/21 09:41:40;;;;;;;;;5.00;3.75;;;;;20.63;37.58;101981.13;5005275;28;52542;-58
2021/12/21 09:44:05;;;;;;;;;6.00;6.00;;;;;20.64;37.26;101977.38;5002678;28;51456;-59
2021/12/21 09:46:31;;;;;;;;;6.00;4.00;;;;;20.65;37.55;101984.59;4996967;28;52225;-56
2021/12/21 09:48:56;;;;;;;;;5.00;5.00;;;;;20.67;37.46;101990.75;5001984;28;51580;-58
2021/12/21 09:51:22;;;;;;;;;7.75;4.25;;;;;20.69;37.86;101994.13;5006798;28;51309;-58
2021/12/21 09:53:50;;;;;;;;;5.00;4.50;;;;;20.70;37.68;101993.09;5004568;28;51346;-58
2021/12/21 09:56:17;;;;;;;;;6.00;5.00;;;;;20.72;37.71;101995.63;5006897;28;51235;-57
2021/12/21 09:58:42;;;;;;;;;6.50;5.25;;;;;20.74;37.74;101988.91;5002387;28;51136;-54
2021/12/21 10:01:08;;;;;;;;;5.25;4.00;;;;;20.78;38.08;101994.88;5003077;28;51224;-57
2021/12/21 10:03:34;;;;;;;;;3.50;3.50;;;;;20.80;37.76;101995.53;4996642;28;51421;-57
2021/12/21 10:06:10;;;;;;;;;6.00;4.00;;;;;20.83;37.73;101995.13;4999827;28;51251;-58
2021/12/21 10:08:37;;;;;;;;;5.25;4.50;;;;;20.87;38.01;101992.84;5006859;28;52832;-57
2021/12/21 10:11:04;;;;;;;;;4.50;4.00;;;;;20.89;37.96;101994.34;5007721;28;51435;-55
2021/12/21 10:13:30;;;;;;;;;7.25;4.50;;;;;20.91;38.10;101989.47;5006301;28;51026;-57
2021/12/21 10:15:58;;;;;;;;;8.25;5.75;;;;;20.95;38.23;101995.47;5010366;28;51205;-55
2021/12/21 10:18:39;;;;;;;;;5.00;5.00;;;;;20.98;37.73;101995.06;5008913;28;51113;-56
2021/12/21 10:21:07;;;;;;;;;5.25;3.50;;;;;21.02;38.28;101996.34;5003520;28;52573;-57
2021/12/21 10:23:36;;;;;;;;;7.00;4.75;;;;;21.04;38.04;102002.50;5006014;28;51544;-59
2021/12/21 10:26:11;;;;;;;;;5.25;5.00;;;;;21.09;37.81;101999.19;4999888;28;51329;-55
2021/12/21 10:28:57;;;;;;;;;5.00;5.00;;;;;21.05;37.87;101982.22;5005716;28;51888;-57
2021/12/21 10:31:27;;;;;;;;;6.25;5.00;;;;;21.15;37.71;101990.94;5002442;28;51216;-56
2021/12/21 10:33:54;;;;;;;;;4.50;4.50;;;;;21.18;38.17;101987.81;5002561;28;51168;-56
2021/12/21 10:36:20;;;;;;;;;5.50;5.50;;;;;21.21;37.82;101983.81;5002318;28;51181;-57
2021/12/21 10:38:50;;;;;;;;;5.50;4.50;;;;;21.26;37.72;101987.72;5002024;28;52089;-57
2021/12/21 10:41:36;;;;;;;;;5.50;4.25;;;;;21.29;37.67;101995.56;5002196;28;51491;-56
2021/12/21 10:44:13;;;;;;;;;4.75;4.00;;;;;21.30;37.64;101986.25;5006844;28;51186;-56
2021/12/21 10:46:43;;;;;;;;;8.25;5.00;;;;;21.34;37.95;101975.66;5008156;28;51212;-56
2021/12/21 10:49:15;;;;;;;;;4.50;3.50;;;;;21.36;38.07;101973.56;5005197;28;52546;-57
2021/12/21 10:52:04;;;;;;;;;6.00;6.00;;;;;21.38;38.18;101979.75;5009123;28;51427;-57
2021/12/21 10:54:35;;;;;;;;;5.50;5.00;;;;;21.42;38.30;101982.94;5010054;28;51139;-58
2021/12/21 10:57:23;;;;;;;;;5.50;5.50;;;;;21.43;37.85;101985.47;5005016;28;52805;-56
2021/12/21 10:59:53;;;;;;;;;8.00;4.25;;;;;21.45;37.76;101974.25;5001128;28;51724;-58
2021/12/21 11:02:23;;;;;;;;;4.00;4.00;;;;;21.50;38.08;101975.38;5008330;28;51439;-58
2021/12/21 11:04:54;;;;;;;;;5.25;4.25;;;;;21.53;37.76;101974.09;4999086;28;51454;-55
2021/12/21 11:10:11;;;;;;;;;5.75;5.50;;;;;21.58;37.78;101977.13;5006221;28;51141;-56
2021/12/21 11:12:53;;;;;;;;;5.00;4.00;;;;;21.58;38.19;101975.22;5005816;28;51173;-55
2021/12/21 11:15:21;;;;;;;;;6.50;5.00;;;;;21.59;37.73;101979.66;5016295;28;51087;-56
2021/12/21 11:17:48;;;;;;;;;6.00;4.50;;;;;21.61;38.10;101976.69;4999948;28;51223;-57
2021/12/21 11:20:15;;;;;;;;;5.75;4.75;;;;;21.63;38.40;101974.59;5005848;28;51943;-55
2021/12/21 11:22:43;;;;;;;;;6.25;6.00;;;;;21.65;38.61;101971.63;5009636;28;51456;-56
2021/12/21 11:25:11;;;;;;;;;4.25;4.00;;;;;21.66;38.75;101971.41;5016853;28;51277;-58
2021/12/21 11:27:40;;;;;;;;;6.00;6.00;;;;;21.65;38.36;101966.09;5017192;28;51117;-57
2021/12/21 11:30:20;;;;;;;;;7.50;7.50;;;;;21.67;37.77;101959.31;5011777;28;51998;-58
2021/12/21 11:32:49;;;;;;;;;6.00;6.00;;;;;21.70;37.89;101952.56;5009739;28;51221;-58
2021/12/21 11:37:48;;;;;;;;;7.00;5.00;;;;;21.71;38.32;101949.59;5021693;28;51304;-56
2021/12/21 11:40:17;;;;;;;;;3.00;2.00;;;;;21.72;37.91;101951.31;5006288;28;51862;-58
2021/12/21 11:42:50;;;;;;;;;6.50;5.00;;;;;21.71;38.46;101951.53;5013838;28;51268;-57
2021/12/21 11:45:33;;;;;;;;;7.50;6.00;;;;;21.70;38.09;101949.81;5002255;28;51448;-58
2021/12/21 11:48:10;;;;;;;;;11.75;8.00;;;;;21.71;38.34;101943.25;5005825;28;51382;-58
2021/12/21 11:50:38;;;;;;;;;8.00;8.00;;;;;21.69;37.93;101950.88;5008150;28;51991;-58
2021/12/21 11:53:07;;;;;;;;;8.50;8.50;;;;;21.71;38.40;101949.59;5006474;28;51468;-58
2021/12/21 11:55:34;;;;;;;;;11.00;8.00;;;;;21.73;38.22;101939.22;4998281;28;51077;-58
2021/12/21 11:58:21;;;;;;;;;9.50;7.50;;;;;21.73;38.30;101935.63;5020146;28;51042;-57
2021/12/21 12:00:58;;;;;;;;;10.00;7.00;;;;;21.75;38.87;101934.34;5010739;28;51888;-58
2021/12/21 12:03:26;;;;;;;;;8.25;7.25;;;;;21.76;38.89;101936.03;5016906;28;51110;-60
2021/12/21 12:06:00;;;;;;;;;7.25;6.00;;;;;21.77;38.40;101931.38;5008737;28;51155;-58
2021/12/21 12:08:39;;;;;;;;;7.75;7.00;;;;;21.77;38.92;101936.91;5016571;28;51344;-57
2021/12/21 12:11:04;;;;;;;;;8.00;6.25;;;;;21.77;38.32;101932.22;5010383;28;51803;-57
2021/12/21 12:13:43;;;;;;;;;9.75;7.25;;;;;21.79;38.29;101929.28;5013323;28;51465;-57
2021/12/21 12:16:12;;;;;;;;;7.00;6.50;;;;;21.77;38.64;101914.84;5008214;28;51275;-58
2021/12/21 12:18:47;;;;;;;;;6.75;6.75;;;;;21.76;38.32;101913.13;5003756;28;51160;-57
2021/12/21 12:21:17;;;;;;;;;9.75;7.00;;;;;21.75;38.08;101916.94;5008997;28;51844;-56
2021/12/21 12:24:04;;;;;;;;;6.00;6.00;;;;;21.73;38.57;101913.56;5013031;28;51304;-55
2021/12/21 12:26:36;;;;;;;;;6.00;5.00;;;;;21.73;38.16;101914.41;5008801;28;50957;-54
2021/12/21 12:29:11;;;;;;;;;5.50;5.50;;;;;21.75;38.54;101908.69;5012776;28;51360;-53
2021/12/21 12:31:39;;;;;;;;;6.75;6.00;;;;;21.74;38.31;101907.81;5009976;28;51087;-54
2021/12/21 12:34:06;;;;;;;;;5.00;5.00;;;;;21.73;38.37;101897.84;5012183;28;51342;-55
2021/12/21 12:36:54;;;;;;;;;7.25;6.25;;;;;21.73;38.19;101903.38;5005887;28;51180;-53
2021/12/21 12:39:50;;;;;;;;;9.00;8.75;;;;;21.75;38.29;101901.25;5013509;28;51266;-54